sensor_id;sensor_type;location;lat;lon;timestamp;temperature;humidity
11597;DHT22;5854;48.072;16.286;2023-11-18T00:00:57;5.80;66.70
11597;DHT22;5854;48.072;16.286;2023-11-18T00:03:25;5.50;59.60
11597;DHT22;5854;48.072;16.286;2023-11-18T00:05:52;5.70;67.50
11597;DHT22;5854;48.072;16.286;2023-11-18T00:08:19;5.90;68.00
11597;DHT22;5854;48.072;16.286;2023-11-18T00:10:46;5.70;59.20
11597;DHT22;5854;48.072;16.286;2023-11-18T00:13:14;5.80;62.80
11597;DHT22;5854;48.072;16.286;2023-11-18T00:15:42;5.90;69.50
11597;DHT22;5854;48.072;16.286;2023-11-18T00:18:11;5.70;58.80
11597;DHT22;5854;48.072;16.286;2023-11-18T00:20:38;5.70;65.10
11597;DHT22;5854;48.072;16.286;2023-11-18T00:23:05;5.60;67.60
11597;DHT22;5854;48.072;16.286;2023-11-18T00:25:32;5.60;57.20
11597;DHT22;5854;48.072;16.286;2023-11-18T00:28:02;5.60;60.80
11597;DHT22;5854;48.072;16.286;2023-11-18T00:30:29;5.50;59.40
11597;DHT22;5854;48.072;16.286;2023-11-18T00:32:57;5.60;65.60
11597;DHT22;5854;48.072;16.286;2023-11-18T00:35:24;5.60;58.80
11597;DHT22;5854;48.072;16.286;2023-11-18T00:37:50;5.50;58.50
11597;DHT22;5854;48.072;16.286;2023-11-18T00:40:18;5.40;61.30
11597;DHT22;5854;48.072;16.286;2023-11-18T00:42:45;5.70;66.80
11597;DHT22;5854;48.072;16.286;2023-11-18T00:45:12;5.60;60.40
11597;DHT22;5854;48.072;16.286;2023-11-18T00:47:39;5.60;62.60
11597;DHT22;5854;48.072;16.286;2023-11-18T00:50:09;5.60;63.20
11597;DHT22;5854;48.072;16.286;2023-11-18T00:52:36;5.60;64.50
11597;DHT22;5854;48.072;16.286;2023-11-18T00:55:07;5.70;67.50
11597;DHT22;5854;48.072;16.286;2023-11-18T00:57:36;5.60;63.80
11597;DHT22;5854;48.072;16.286;2023-11-18T01:00:07;5.30;55.30
11597;DHT22;5854;48.072;16.286;2023-11-18T01:02:39;5.20;57.70
11597;DHT22;5854;48.072;16.286;2023-11-18T01:05:08;5.20;59.50
11597;DHT22;5854;48.072;16.286;2023-11-18T01:07:36;5.30;66.50
11597;DHT22;5854;48.072;16.286;2023-11-18T01:10:04;5.50;61.40
11597;DHT22;5854;48.072;16.286;2023-11-18T01:12:32;5.40;63.30
11597;DHT22;5854;48.072;16.286;2023-11-18T01:14:59;5.40;65.40
11597;DHT22;5854;48.072;16.286;2023-11-18T01:17:26;5.40;65.80
11597;DHT22;5854;48.072;16.286;2023-11-18T01:19:53;5.40;66.90
11597;DHT22;5854;48.072;16.286;2023-11-18T01:22:22;5.40;65.10
11597;DHT22;5854;48.072;16.286;2023-11-18T01:24:49;5.00;58.60
11597;DHT22;5854;48.072;16.286;2023-11-18T01:27:16;5.40;70.90
11597;DHT22;5854;48.072;16.286;2023-11-18T01:29:45;5.30;67.30
11597;DHT22;5854;48.072;16.286;2023-11-18T01:32:12;5.20;60.20
11597;DHT22;5854;48.072;16.286;2023-11-18T01:34:40;5.10;58.90
11597;DHT22;5854;48.072;16.286;2023-11-18T01:37:09;5.10;63.90
11597;DHT22;5854;48.072;16.286;2023-11-18T01:39:37;5.30;65.80
11597;DHT22;5854;48.072;16.286;2023-11-18T01:42:05;5.20;64.00
11597;DHT22;5854;48.072;16.286;2023-11-18T01:44:32;5.20;63.50
11597;DHT22;5854;48.072;16.286;2023-11-18T01:47:01;5.30;67.50
11597;DHT22;5854;48.072;16.286;2023-11-18T01:49:32;5.30;65.80
11597;DHT22;5854;48.072;16.286;2023-11-18T01:52:03;5.30;65.20
11597;DHT22;5854;48.072;16.286;2023-11-18T01:54:33;5.20;62.80
11597;DHT22;5854;48.072;16.286;2023-11-18T01:57:05;5.10;60.30
11597;DHT22;5854;48.072;16.286;2023-11-18T01:59:35;5.20;65.40
11597;DHT22;5854;48.072;16.286;2023-11-18T02:02:04;5.10;64.70
11597;DHT22;5854;48.072;16.286;2023-11-18T02:04:31;5.00;61.80
11597;DHT22;5854;48.072;16.286;2023-11-18T02:06:59;5.20;67.50
11597;DHT22;5854;48.072;16.286;2023-11-18T02:09:29;5.10;59.90
11597;DHT22;5854;48.072;16.286;2023-11-18T02:12:00;5.30;69.60
11597;DHT22;5854;48.072;16.286;2023-11-18T02:14:39;5.20;66.50
11597;DHT22;5854;48.072;16.286;2023-11-18T02:17:09;5.20;64.10
11597;DHT22;5854;48.072;16.286;2023-11-18T02:19:39;5.00;60.60
11597;DHT22;5854;48.072;16.286;2023-11-18T02:22:07;5.10;65.50
11597;DHT22;5854;48.072;16.286;2023-11-18T02:24:35;4.90;59.60
11597;DHT22;5854;48.072;16.286;2023-11-18T02:27:05;5.10;67.80
11597;DHT22;5854;48.072;16.286;2023-11-18T02:29:34;5.00;64.50
11597;DHT22;5854;48.072;16.286;2023-11-18T02:32:07;5.30;66.80
11597;DHT22;5854;48.072;16.286;2023-11-18T02:34:43;5.20;61.60
11597;DHT22;5854;48.072;16.286;2023-11-18T02:37:19;5.10;64.10
11597;DHT22;5854;48.072;16.286;2023-11-18T02:39:51;5.00;59.10
11597;DHT22;5854;48.072;16.286;2023-11-18T02:42:22;5.10;65.40
11597;DHT22;5854;48.072;16.286;2023-11-18T02:44:50;5.10;64.40
11597;DHT22;5854;48.072;16.286;2023-11-18T02:47:25;5.00;61.50
11597;DHT22;5854;48.072;16.286;2023-11-18T02:49:54;4.80;61.50
11597;DHT22;5854;48.072;16.286;2023-11-18T02:52:30;4.90;67.50
11597;DHT22;5854;48.072;16.286;2023-11-18T02:54:58;5.10;65.60
11597;DHT22;5854;48.072;16.286;2023-11-18T02:57:27;4.90;63.40
11597;DHT22;5854;48.072;16.286;2023-11-18T02:59:54;5.00;66.00
11597;DHT22;5854;48.072;16.286;2023-11-18T03:02:21;4.90;64.50
11597;DHT22;5854;48.072;16.286;2023-11-18T03:04:48;5.00;61.40
11597;DHT22;5854;48.072;16.286;2023-11-18T03:07:15;5.00;64.20
11597;DHT22;5854;48.072;16.286;2023-11-18T03:09:43;5.10;65.70
11597;DHT22;5854;48.072;16.286;2023-11-18T03:12:12;5.00;63.20
11597;DHT22;5854;48.072;16.286;2023-11-18T03:14:40;5.20;69.90
11597;DHT22;5854;48.072;16.286;2023-11-18T03:17:08;5.10;68.20
11597;DHT22;5854;48.072;16.286;2023-11-18T03:19:35;5.00;61.80
11597;DHT22;5854;48.072;16.286;2023-11-18T03:22:02;5.00;67.10
11597;DHT22;5854;48.072;16.286;2023-11-18T03:24:29;4.90;62.20
11597;DHT22;5854;48.072;16.286;2023-11-18T03:26:57;5.00;65.90
11597;DHT22;5854;48.072;16.286;2023-11-18T03:29:24;5.00;62.80
11597;DHT22;5854;48.072;16.286;2023-11-18T03:31:52;5.10;69.20
11597;DHT22;5854;48.072;16.286;2023-11-18T03:34:20;4.90;61.50
11597;DHT22;5854;48.072;16.286;2023-11-18T03:36:47;4.80;60.60
11597;DHT22;5854;48.072;16.286;2023-11-18T03:39:14;4.80;60.80
11597;DHT22;5854;48.072;16.286;2023-11-18T03:41:41;4.90;66.50
11597;DHT22;5854;48.072;16.286;2023-11-18T03:44:10;5.00;69.50
11597;DHT22;5854;48.072;16.286;2023-11-18T03:46:38;5.00;65.10
11597;DHT22;5854;48.072;16.286;2023-11-18T03:49:08;4.90;64.50
11597;DHT22;5854;48.072;16.286;2023-11-18T03:51:35;4.90;59.50
11597;DHT22;5854;48.072;16.286;2023-11-18T03:54:02;4.90;63.70
11597;DHT22;5854;48.072;16.286;2023-11-18T03:56:30;5.00;67.40
11597;DHT22;5854;48.072;16.286;2023-11-18T03:58:57;4.90;68.20
11597;DHT22;5854;48.072;16.286;2023-11-18T04:01:25;5.20;69.60
11597;DHT22;5854;48.072;16.286;2023-11-18T04:03:53;5.10;64.60
11597;DHT22;5854;48.072;16.286;2023-11-18T04:06:22;5.00;62.60
11597;DHT22;5854;48.072;16.286;2023-11-18T04:08:50;4.90;62.30
11597;DHT22;5854;48.072;16.286;2023-11-18T04:11:17;4.80;59.10
11597;DHT22;5854;48.072;16.286;2023-11-18T04:13:45;4.90;69.10
11597;DHT22;5854;48.072;16.286;2023-11-18T04:16:12;4.80;61.30
11597;DHT22;5854;48.072;16.286;2023-11-18T04:18:41;4.90;67.70
11597;DHT22;5854;48.072;16.286;2023-11-18T04:21:09;4.80;61.90
11597;DHT22;5854;48.072;16.286;2023-11-18T04:23:38;4.80;64.90
11597;DHT22;5854;48.072;16.286;2023-11-18T04:26:07;5.00;67.40
11597;DHT22;5854;48.072;16.286;2023-11-18T04:28:34;5.10;68.80
11597;DHT22;5854;48.072;16.286;2023-11-18T04:31:02;5.00;61.50
11597;DHT22;5854;48.072;16.286;2023-11-18T04:33:30;5.00;63.40
11597;DHT22;5854;48.072;16.286;2023-11-18T04:35:58;4.90;59.30
11597;DHT22;5854;48.072;16.286;2023-11-18T04:38:26;5.10;66.00
11597;DHT22;5854;48.072;16.286;2023-11-18T04:40:55;5.10;66.10
11597;DHT22;5854;48.072;16.286;2023-11-18T04:43:23;5.10;62.30
11597;DHT22;5854;48.072;16.286;2023-11-18T04:45:50;5.20;66.50
11597;DHT22;5854;48.072;16.286;2023-11-18T04:48:18;5.20;65.00
11597;DHT22;5854;48.072;16.286;2023-11-18T04:50:47;5.10;62.60
11597;DHT22;5854;48.072;16.286;2023-11-18T04:53:14;5.10;67.20
11597;DHT22;5854;48.072;16.286;2023-11-18T04:55:41;5.10;60.70
11597;DHT22;5854;48.072;16.286;2023-11-18T04:58:10;5.10;63.60
11597;DHT22;5854;48.072;16.286;2023-11-18T05:00:37;5.10;56.40
11597;DHT22;5854;48.072;16.286;2023-11-18T05:03:05;5.10;64.30
11597;DHT22;5854;48.072;16.286;2023-11-18T05:05:35;5.20;65.40
11597;DHT22;5854;48.072;16.286;2023-11-18T05:08:03;5.10;60.40
11597;DHT22;5854;48.072;16.286;2023-11-18T05:10:32;5.20;61.20
11597;DHT22;5854;48.072;16.286;2023-11-18T05:12:59;5.20;65.50
11597;DHT22;5854;48.072;16.286;2023-11-18T05:15:27;5.10;59.90
11597;DHT22;5854;48.072;16.286;2023-11-18T05:17:55;5.20;64.00
11597;DHT22;5854;48.072;16.286;2023-11-18T05:20:23;5.20;65.00
11597;DHT22;5854;48.072;16.286;2023-11-18T05:22:50;5.10;59.60
11597;DHT22;5854;48.072;16.286;2023-11-18T05:25:17;5.10;60.70
11597;DHT22;5854;48.072;16.286;2023-11-18T05:27:44;5.10;62.30
11597;DHT22;5854;48.072;16.286;2023-11-18T05:30:12;5.00;57.20
11597;DHT22;5854;48.072;16.286;2023-11-18T05:32:41;5.00;61.70
11597;DHT22;5854;48.072;16.286;2023-11-18T05:35:08;5.00;61.40
11597;DHT22;5854;48.072;16.286;2023-11-18T05:37:37;5.10;66.20
11597;DHT22;5854;48.072;16.286;2023-11-18T05:40:07;5.10;64.30
11597;DHT22;5854;48.072;16.286;2023-11-18T05:42:36;5.10;60.80
11597;DHT22;5854;48.072;16.286;2023-11-18T05:45:04;5.10;60.50
11597;DHT22;5854;48.072;16.286;2023-11-18T05:47:33;5.10;58.20
11597;DHT22;5854;48.072;16.286;2023-11-18T05:50:02;5.10;58.70
11597;DHT22;5854;48.072;16.286;2023-11-18T05:52:31;5.00;59.30
11597;DHT22;5854;48.072;16.286;2023-11-18T05:54:58;5.10;65.10
11597;DHT22;5854;48.072;16.286;2023-11-18T05:57:25;5.20;60.90
11597;DHT22;5854;48.072;16.286;2023-11-18T05:59:55;5.20;64.90
11597;DHT22;5854;48.072;16.286;2023-11-18T06:02:22;5.30;64.50
11597;DHT22;5854;48.072;16.286;2023-11-18T06:04:50;5.20;57.50
11597;DHT22;5854;48.072;16.286;2023-11-18T06:07:19;5.20;63.70
11597;DHT22;5854;48.072;16.286;2023-11-18T06:09:46;5.20;59.00
11597;DHT22;5854;48.072;16.286;2023-11-18T06:12:13;5.10;60.10
11597;DHT22;5854;48.072;16.286;2023-11-18T06:14:43;5.10;61.60
11597;DHT22;5854;48.072;16.286;2023-11-18T06:17:12;5.30;65.70
11597;DHT22;5854;48.072;16.286;2023-11-18T06:19:39;5.10;57.90
11597;DHT22;5854;48.072;16.286;2023-11-18T06:22:06;5.20;65.70
11597;DHT22;5854;48.072;16.286;2023-11-18T06:24:35;5.10;64.00
11597;DHT22;5854;48.072;16.286;2023-11-18T06:27:05;5.10;59.80
11597;DHT22;5854;48.072;16.286;2023-11-18T06:29:33;5.20;66.00
11597;DHT22;5854;48.072;16.286;2023-11-18T06:32:00;5.20;61.50
11597;DHT22;5854;48.072;16.286;2023-11-18T06:34:27;5.20;65.00
11597;DHT22;5854;48.072;16.286;2023-11-18T06:36:54;5.10;57.60
11597;DHT22;5854;48.072;16.286;2023-11-18T06:39:21;5.20;64.80
11597;DHT22;5854;48.072;16.286;2023-11-18T06:41:56;5.20;61.30
11597;DHT22;5854;48.072;16.286;2023-11-18T06:44:23;5.30;62.80
11597;DHT22;5854;48.072;16.286;2023-11-18T06:46:50;5.30;63.60
11597;DHT22;5854;48.072;16.286;2023-11-18T06:49:18;5.20;62.40
11597;DHT22;5854;48.072;16.286;2023-11-18T06:51:45;5.20;58.90
11597;DHT22;5854;48.072;16.286;2023-11-18T06:54:13;5.30;62.20
11597;DHT22;5854;48.072;16.286;2023-11-18T06:56:43;5.20;58.00
11597;DHT22;5854;48.072;16.286;2023-11-18T06:59:14;5.40;64.50
11597;DHT22;5854;48.072;16.286;2023-11-18T07:01:41;5.30;61.20
11597;DHT22;5854;48.072;16.286;2023-11-18T07:04:09;5.40;64.60
11597;DHT22;5854;48.072;16.286;2023-11-18T07:06:39;5.40;64.80
11597;DHT22;5854;48.072;16.286;2023-11-18T07:09:07;5.40;62.80
11597;DHT22;5854;48.072;16.286;2023-11-18T07:11:42;5.40;63.60
11597;DHT22;5854;48.072;16.286;2023-11-18T07:14:11;5.40;60.00
11597;DHT22;5854;48.072;16.286;2023-11-18T07:16:43;5.30;58.00
11597;DHT22;5854;48.072;16.286;2023-11-18T07:19:11;5.40;59.80
11597;DHT22;5854;48.072;16.286;2023-11-18T07:21:45;5.50;65.10
11597;DHT22;5854;48.072;16.286;2023-11-18T07:24:12;5.50;63.80
11597;DHT22;5854;48.072;16.286;2023-11-18T07:26:40;5.50;63.70
11597;DHT22;5854;48.072;16.286;2023-11-18T07:29:07;5.50;57.70
11597;DHT22;5854;48.072;16.286;2023-11-18T07:31:36;5.50;59.60
11597;DHT22;5854;48.072;16.286;2023-11-18T07:34:03;5.50;60.80
11597;DHT22;5854;48.072;16.286;2023-11-18T07:36:31;5.50;58.80
11597;DHT22;5854;48.072;16.286;2023-11-18T07:38:59;5.50;60.00
11597;DHT22;5854;48.072;16.286;2023-11-18T07:41:30;5.50;59.50
11597;DHT22;5854;48.072;16.286;2023-11-18T07:43:59;5.50;62.00
11597;DHT22;5854;48.072;16.286;2023-11-18T07:46:27;5.60;60.20
11597;DHT22;5854;48.072;16.286;2023-11-18T07:48:57;5.60;61.80
11597;DHT22;5854;48.072;16.286;2023-11-18T07:51:26;5.60;62.30
11597;DHT22;5854;48.072;16.286;2023-11-18T07:53:54;5.60;61.50
11597;DHT22;5854;48.072;16.286;2023-11-18T07:56:22;5.60;61.60
11597;DHT22;5854;48.072;16.286;2023-11-18T07:58:49;5.60;56.50
11597;DHT22;5854;48.072;16.286;2023-11-18T08:01:18;5.60;59.30
11597;DHT22;5854;48.072;16.286;2023-11-18T08:03:46;5.70;60.80
11597;DHT22;5854;48.072;16.286;2023-11-18T08:06:15;5.80;61.30
11597;DHT22;5854;48.072;16.286;2023-11-18T08:08:42;5.80;60.50
11597;DHT22;5854;48.072;16.286;2023-11-18T08:11:11;5.80;60.30
11597;DHT22;5854;48.072;16.286;2023-11-18T08:13:38;5.80;57.10
11597;DHT22;5854;48.072;16.286;2023-11-18T08:16:06;5.70;56.40
11597;DHT22;5854;48.072;16.286;2023-11-18T08:18:34;5.80;59.50
11597;DHT22;5854;48.072;16.286;2023-11-18T08:21:01;5.80;57.20
11597;DHT22;5854;48.072;16.286;2023-11-18T08:23:31;5.90;62.30
11597;DHT22;5854;48.072;16.286;2023-11-18T08:25:58;5.80;58.10
11597;DHT22;5854;48.072;16.286;2023-11-18T08:28:26;5.80;60.80
11597;DHT22;5854;48.072;16.286;2023-11-18T08:30:53;5.90;56.70
11597;DHT22;5854;48.072;16.286;2023-11-18T08:33:20;5.90;56.90
11597;DHT22;5854;48.072;16.286;2023-11-18T08:35:49;5.90;56.70
11597;DHT22;5854;48.072;16.286;2023-11-18T08:38:17;5.90;59.30
11597;DHT22;5854;48.072;16.286;2023-11-18T08:40:46;5.90;59.00
11597;DHT22;5854;48.072;16.286;2023-11-18T08:43:14;6.00;61.70
11597;DHT22;5854;48.072;16.286;2023-11-18T08:45:42;6.10;60.00
11597;DHT22;5854;48.072;16.286;2023-11-18T08:48:09;6.10;58.40
11597;DHT22;5854;48.072;16.286;2023-11-18T08:50:37;6.10;57.30
11597;DHT22;5854;48.072;16.286;2023-11-18T08:53:05;6.10;59.60
11597;DHT22;5854;48.072;16.286;2023-11-18T08:55:35;6.10;59.30
11597;DHT22;5854;48.072;16.286;2023-11-18T08:58:18;6.20;58.10
11597;DHT22;5854;48.072;16.286;2023-11-18T09:00:54;6.20;59.50
11597;DHT22;5854;48.072;16.286;2023-11-18T09:03:31;6.20;57.20
11597;DHT22;5854;48.072;16.286;2023-11-18T09:06:01;6.30;57.60
11597;DHT22;5854;48.072;16.286;2023-11-18T09:08:32;6.30;58.00
11597;DHT22;5854;48.072;16.286;2023-11-18T09:11:05;6.30;56.10
11597;DHT22;5854;48.072;16.286;2023-11-18T09:13:35;6.30;59.40
11597;DHT22;5854;48.072;16.286;2023-11-18T09:16:03;6.40;59.30
11597;DHT22;5854;48.072;16.286;2023-11-18T09:18:34;6.40;59.90
11597;DHT22;5854;48.072;16.286;2023-11-18T09:21:02;6.40;54.50
11597;DHT22;5854;48.072;16.286;2023-11-18T09:23:31;6.50;56.40
11597;DHT22;5854;48.072;16.286;2023-11-18T09:26:00;6.50;55.70
11597;DHT22;5854;48.072;16.286;2023-11-18T09:28:28;6.50;58.10
11597;DHT22;5854;48.072;16.286;2023-11-18T09:30:57;6.50;60.50
11597;DHT22;5854;48.072;16.286;2023-11-18T09:33:26;6.60;56.80
11597;DHT22;5854;48.072;16.286;2023-11-18T09:35:58;6.60;59.80
11597;DHT22;5854;48.072;16.286;2023-11-18T09:38:29;6.40;58.50
11597;DHT22;5854;48.072;16.286;2023-11-18T09:40:57;6.40;59.80
11597;DHT22;5854;48.072;16.286;2023-11-18T09:43:28;6.40;59.40
11597;DHT22;5854;48.072;16.286;2023-11-18T09:46:04;6.40;59.80
11597;DHT22;5854;48.072;16.286;2023-11-18T09:48:43;6.40;59.90
11597;DHT22;5854;48.072;16.286;2023-11-18T09:51:20;6.30;60.50
11597;DHT22;5854;48.072;16.286;2023-11-18T09:53:50;6.40;57.10
11597;DHT22;5854;48.072;16.286;2023-11-18T09:56:24;6.60;59.40
11597;DHT22;5854;48.072;16.286;2023-11-18T09:59:10;6.60;58.50
11597;DHT22;5854;48.072;16.286;2023-11-18T10:01:43;6.40;58.80
11597;DHT22;5854;48.072;16.286;2023-11-18T10:04:12;6.40;58.60
11597;DHT22;5854;48.072;16.286;2023-11-18T10:06:44;6.60;59.20
11597;DHT22;5854;48.072;16.286;2023-11-18T10:09:13;6.60;55.10
11597;DHT22;5854;48.072;16.286;2023-11-18T10:11:50;6.80;59.50
11597;DHT22;5854;48.072;16.286;2023-11-18T10:14:20;6.70;56.30
11597;DHT22;5854;48.072;16.286;2023-11-18T10:16:51;6.60;57.50
11597;DHT22;5854;48.072;16.286;2023-11-18T10:19:20;6.70;59.30
11597;DHT22;5854;48.072;16.286;2023-11-18T10:21:50;6.80;56.40
11597;DHT22;5854;48.072;16.286;2023-11-18T10:24:17;6.90;58.30
11597;DHT22;5854;48.072;16.286;2023-11-18T10:26:53;6.80;54.70
11597;DHT22;5854;48.072;16.286;2023-11-18T10:29:23;7.00;55.00
11597;DHT22;5854;48.072;16.286;2023-11-18T10:32:05;7.00;58.10
11597;DHT22;5854;48.072;16.286;2023-11-18T10:34:42;7.00;57.80
11597;DHT22;5854;48.072;16.286;2023-11-18T10:37:09;6.90;55.60
11597;DHT22;5854;48.072;16.286;2023-11-18T10:39:36;6.80;56.10
11597;DHT22;5854;48.072;16.286;2023-11-18T10:42:04;6.80;55.20
11597;DHT22;5854;48.072;16.286;2023-11-18T10:44:31;6.70;58.30
11597;DHT22;5854;48.072;16.286;2023-11-18T10:46:59;6.90;57.90
11597;DHT22;5854;48.072;16.286;2023-11-18T10:49:29;6.90;55.10
11597;DHT22;5854;48.072;16.286;2023-11-18T10:52:02;6.90;59.30
11597;DHT22;5854;48.072;16.286;2023-11-18T10:54:32;6.90;57.80
11597;DHT22;5854;48.072;16.286;2023-11-18T10:57:02;6.70;57.20
11597;DHT22;5854;48.072;16.286;2023-11-18T10:59:33;6.80;56.80
11597;DHT22;5854;48.072;16.286;2023-11-18T11:02:00;6.70;56.30
11597;DHT22;5854;48.072;16.286;2023-11-18T11:04:43;6.80;56.50
11597;DHT22;5854;48.072;16.286;2023-11-18T11:07:12;6.70;58.20
11597;DHT22;5854;48.072;16.286;2023-11-18T11:09:40;6.70;58.80
11597;DHT22;5854;48.072;16.286;2023-11-18T11:12:12;6.80;57.90
11597;DHT22;5854;48.072;16.286;2023-11-18T11:14:46;6.70;56.10
11597;DHT22;5854;48.072;16.286;2023-11-18T11:17:17;6.80;57.50
11597;DHT22;5854;48.072;16.286;2023-11-18T11:20:01;6.80;57.00
11597;DHT22;5854;48.072;16.286;2023-11-18T11:22:51;6.80;56.90
11597;DHT22;5854;48.072;16.286;2023-11-18T11:25:35;6.90;57.90
11597;DHT22;5854;48.072;16.286;2023-11-18T11:28:11;6.80;55.40
11597;DHT22;5854;48.072;16.286;2023-11-18T11:30:45;6.80;57.60
11597;DHT22;5854;48.072;16.286;2023-11-18T11:33:14;6.70;55.00
11597;DHT22;5854;48.072;16.286;2023-11-18T11:35:56;6.80;56.70
11597;DHT22;5854;48.072;16.286;2023-11-18T11:38:24;6.70;55.80
11597;DHT22;5854;48.072;16.286;2023-11-18T11:40:53;6.70;54.20
11597;DHT22;5854;48.072;16.286;2023-11-18T11:43:22;6.80;58.30
11597;DHT22;5854;48.072;16.286;2023-11-18T11:45:51;6.70;59.10
11597;DHT22;5854;48.072;16.286;2023-11-18T11:48:22;6.70;56.20
11597;DHT22;5854;48.072;16.286;2023-11-18T11:51:00;6.70;58.90
11597;DHT22;5854;48.072;16.286;2023-11-18T11:53:41;6.70;57.90
11597;DHT22;5854;48.072;16.286;2023-11-18T11:56:13;6.70;58.30
11597;DHT22;5854;48.072;16.286;2023-11-18T11:58:46;6.70;58.80
11597;DHT22;5854;48.072;16.286;2023-11-18T12:01:32;6.80;57.90
11597;DHT22;5854;48.072;16.286;2023-11-18T12:04:03;6.80;58.90
11597;DHT22;5854;48.072;16.286;2023-11-18T12:06:41;6.80;54.90
11597;DHT22;5854;48.072;16.286;2023-11-18T12:09:10;6.80;59.30
11597;DHT22;5854;48.072;16.286;2023-11-18T12:11:40;6.80;58.70
11597;DHT22;5854;48.072;16.286;2023-11-18T12:14:12;6.80;56.10
11597;DHT22;5854;48.072;16.286;2023-11-18T12:17:02;6.80;57.80
11597;DHT22;5854;48.072;16.286;2023-11-18T12:19:37;6.80;55.20
11597;DHT22;5854;48.072;16.286;2023-11-18T12:22:16;6.80;57.60
11597;DHT22;5854;48.072;16.286;2023-11-18T12:28:07;6.70;57.30
11597;DHT22;5854;48.072;16.286;2023-11-18T12:30:39;6.70;57.70
11597;DHT22;5854;48.072;16.286;2023-11-18T12:33:17;6.70;61.50
11597;DHT22;5854;48.072;16.286;2023-11-18T12:36:36;6.70;59.50
11597;DHT22;5854;48.072;16.286;2023-11-18T12:39:54;6.70;59.00
11597;DHT22;5854;48.072;16.286;2023-11-18T12:42:59;6.60;56.30
11597;DHT22;5854;48.072;16.286;2023-11-18T12:45:41;6.70;60.20
11597;DHT22;5854;48.072;16.286;2023-11-18T12:48:14;6.60;57.80
11597;DHT22;5854;48.072;16.286;2023-11-18T12:50:42;6.60;56.20
11597;DHT22;5854;48.072;16.286;2023-11-18T12:53:11;6.60;57.40
11597;DHT22;5854;48.072;16.286;2023-11-18T12:55:42;6.70;59.90
11597;DHT22;5854;48.072;16.286;2023-11-18T12:58:09;6.70;59.50
11597;DHT22;5854;48.072;16.286;2023-11-18T13:00:42;6.70;56.40
11597;DHT22;5854;48.072;16.286;2023-11-18T13:03:13;6.70;59.50
11597;DHT22;5854;48.072;16.286;2023-11-18T13:05:49;6.70;58.80
11597;DHT22;5854;48.072;16.286;2023-11-18T13:08:17;6.80;59.50
11597;DHT22;5854;48.072;16.286;2023-11-18T13:10:49;6.70;55.40
11597;DHT22;5854;48.072;16.286;2023-11-18T13:13:18;6.80;58.00
11597;DHT22;5854;48.072;16.286;2023-11-18T13:15:46;6.90;57.20
11597;DHT22;5854;48.072;16.286;2023-11-18T13:18:16;6.90;57.40
11597;DHT22;5854;48.072;16.286;2023-11-18T13:20:54;6.70;55.10
11597;DHT22;5854;48.072;16.286;2023-11-18T13:23:25;6.70;57.10
11597;DHT22;5854;48.072;16.286;2023-11-18T13:25:56;6.70;55.50
11597;DHT22;5854;48.072;16.286;2023-11-18T13:28:25;6.70;58.40
11597;DHT22;5854;48.072;16.286;2023-11-18T13:30:53;6.70;58.60
11597;DHT22;5854;48.072;16.286;2023-11-18T13:33:20;6.70;53.90
11597;DHT22;5854;48.072;16.286;2023-11-18T13:35:48;6.70;58.40
11597;DHT22;5854;48.072;16.286;2023-11-18T13:38:16;6.70;57.30
11597;DHT22;5854;48.072;16.286;2023-11-18T13:40:44;6.70;55.20
11597;DHT22;5854;48.072;16.286;2023-11-18T13:43:13;6.60;52.80
11597;DHT22;5854;48.072;16.286;2023-11-18T13:45:41;6.70;54.40
11597;DHT22;5854;48.072;16.286;2023-11-18T13:48:11;6.70;54.60
11597;DHT22;5854;48.072;16.286;2023-11-18T13:50:40;6.70;54.10
11597;DHT22;5854;48.072;16.286;2023-11-18T13:53:08;6.60;54.60
11597;DHT22;5854;48.072;16.286;2023-11-18T13:55:38;6.60;54.20
11597;DHT22;5854;48.072;16.286;2023-11-18T13:58:06;6.60;51.30
11597;DHT22;5854;48.072;16.286;2023-11-18T14:00:37;6.60;55.20
11597;DHT22;5854;48.072;16.286;2023-11-18T14:03:05;6.70;50.80
11597;DHT22;5854;48.072;16.286;2023-11-18T14:05:33;6.60;51.30
11597;DHT22;5854;48.072;16.286;2023-11-18T14:08:01;6.80;59.20
11597;DHT22;5854;48.072;16.286;2023-11-18T14:10:34;7.10;57.70
11597;DHT22;5854;48.072;16.286;2023-11-18T14:13:04;7.10;54.30
11597;DHT22;5854;48.072;16.286;2023-11-18T14:15:36;7.10;54.30
11597;DHT22;5854;48.072;16.286;2023-11-18T14:18:04;6.90;50.10
11597;DHT22;5854;48.072;16.286;2023-11-18T14:20:33;7.10;55.20
11597;DHT22;5854;48.072;16.286;2023-11-18T14:23:01;7.10;55.80
11597;DHT22;5854;48.072;16.286;2023-11-18T14:25:29;6.90;54.80
11597;DHT22;5854;48.072;16.286;2023-11-18T14:27:56;6.80;50.60
11597;DHT22;5854;48.072;16.286;2023-11-18T14:30:23;6.70;56.60
11597;DHT22;5854;48.072;16.286;2023-11-18T14:32:52;6.60;51.50
11597;DHT22;5854;48.072;16.286;2023-11-18T14:35:20;6.60;52.20
11597;DHT22;5854;48.072;16.286;2023-11-18T14:37:48;6.60;54.10
11597;DHT22;5854;48.072;16.286;2023-11-18T14:40:16;6.40;50.30
11597;DHT22;5854;48.072;16.286;2023-11-18T14:42:45;6.40;48.50
11597;DHT22;5854;48.072;16.286;2023-11-18T14:45:14;6.40;51.40
11597;DHT22;5854;48.072;16.286;2023-11-18T14:47:42;6.30;54.80
11597;DHT22;5854;48.072;16.286;2023-11-18T14:50:12;6.30;52.60
11597;DHT22;5854;48.072;16.286;2023-11-18T14:52:44;6.30;56.40
11597;DHT22;5854;48.072;16.286;2023-11-18T14:55:12;6.10;51.90
11597;DHT22;5854;48.072;16.286;2023-11-18T14:57:40;6.10;55.70
11597;DHT22;5854;48.072;16.286;2023-11-18T15:00:11;6.10;53.40
11597;DHT22;5854;48.072;16.286;2023-11-18T15:02:45;6.10;58.20
11597;DHT22;5854;48.072;16.286;2023-11-18T15:05:16;6.10;58.10
11597;DHT22;5854;48.072;16.286;2023-11-18T15:07:48;6.00;56.70
11597;DHT22;5854;48.072;16.286;2023-11-18T15:10:19;6.00;53.90
11597;DHT22;5854;48.072;16.286;2023-11-18T15:12:48;6.00;60.20
11597;DHT22;5854;48.072;16.286;2023-11-18T15:15:19;6.00;57.70
11597;DHT22;5854;48.072;16.286;2023-11-18T15:17:47;5.90;52.60
11597;DHT22;5854;48.072;16.286;2023-11-18T15:20:16;5.90;57.70
11597;DHT22;5854;48.072;16.286;2023-11-18T15:22:45;5.80;53.20
11597;DHT22;5854;48.072;16.286;2023-11-18T15:25:13;5.80;57.80
11597;DHT22;5854;48.072;16.286;2023-11-18T15:27:42;5.80;57.60
11597;DHT22;5854;48.072;16.286;2023-11-18T15:30:12;5.70;55.40
11597;DHT22;5854;48.072;16.286;2023-11-18T15:32:40;5.70;51.90
11597;DHT22;5854;48.072;16.286;2023-11-18T15:35:09;5.70;56.60
11597;DHT22;5854;48.072;16.286;2023-11-18T15:37:38;5.70;56.90
11597;DHT22;5854;48.072;16.286;2023-11-18T15:40:08;5.70;54.50
11597;DHT22;5854;48.072;16.286;2023-11-18T15:42:37;5.60;52.20
11597;DHT22;5854;48.072;16.286;2023-11-18T15:45:07;5.60;55.30
11597;DHT22;5854;48.072;16.286;2023-11-18T15:47:36;5.60;53.40
11597;DHT22;5854;48.072;16.286;2023-11-18T15:50:05;5.60;56.70
11597;DHT22;5854;48.072;16.286;2023-11-18T15:52:34;5.60;54.30
11597;DHT22;5854;48.072;16.286;2023-11-18T15:55:04;5.50;55.70
11597;DHT22;5854;48.072;16.286;2023-11-18T15:57:37;5.60;59.30
11597;DHT22;5854;48.072;16.286;2023-11-18T16:00:06;5.60;50.30
11597;DHT22;5854;48.072;16.286;2023-11-18T16:02:35;5.50;54.80
11597;DHT22;5854;48.072;16.286;2023-11-18T16:05:03;5.50;53.70